createdAt,value
2023-04-19T00:00:18.115Z,2.17
2023-04-19T00:02:45.416Z,2.30
2023-04-19T00:05:13.932Z,1.60
2023-04-19T00:07:41.505Z,2.40
2023-04-19T00:10:09.267Z,2.92
2023-04-19T00:12:36.588Z,3.13
2023-04-19T00:15:03.935Z,3.40
2023-04-19T00:17:31.280Z,3.38
2023-04-19T00:19:58.437Z,2.55
2023-04-19T00:22:26.306Z,2.90
2023-04-19T00:24:53.951Z,3.03
2023-04-19T00:27:21.511Z,2.90
2023-04-19T00:29:48.858Z,3.78
2023-04-19T00:32:16.372Z,2.63
2023-04-19T00:34:43.483Z,4.40
2023-04-19T00:37:11.358Z,3.92
2023-04-19T00:39:39.792Z,3.65
2023-04-19T00:42:07.056Z,3.42
2023-04-19T00:44:34.247Z,4.07
2023-04-19T00:47:01.716Z,3.55
2023-04-19T00:49:30.728Z,2.97
2023-04-19T00:51:58.233Z,3.35
2023-04-19T00:54:25.821Z,3.28
2023-04-19T00:56:53.297Z,2.90
2023-04-19T00:59:20.678Z,2.33
2023-04-19T01:01:48.267Z,1.95
2023-04-19T01:04:17.254Z,2.15
2023-04-19T01:06:46.585Z,3.55
2023-04-19T01:09:13.832Z,2.45
2023-04-19T01:11:43.438Z,2.78
2023-04-19T01:14:10.905Z,1.98
2023-04-19T01:16:39.354Z,1.95
2023-04-19T01:19:06.621Z,2.10
2023-04-19T01:21:38.447Z,2.78
2023-04-19T01:24:06.087Z,2.75
2023-04-19T01:26:33.205Z,2.05
2023-04-19T01:29:02.846Z,2.72
2023-04-19T01:31:30.136Z,3.38
2023-04-19T01:33:57.275Z,3.42
2023-04-19T01:36:24.389Z,2.95
2023-04-19T01:38:51.601Z,4.38
2023-04-19T01:41:20.515Z,4.05
2023-04-19T01:43:47.781Z,3.50
2023-04-19T01:46:15.228Z,3.67
2023-04-19T01:48:42.356Z,4.63
2023-04-19T01:51:09.442Z,5.40
2023-04-19T01:53:36.579Z,4.72
2023-04-19T01:56:03.790Z,3.83
2023-04-19T01:58:30.930Z,3.53
2023-04-19T02:00:58.317Z,4.32
2023-04-19T02:03:25.916Z,3.67
2023-04-19T02:05:53.286Z,2.83
2023-04-19T02:08:22.763Z,2.90
2023-04-19T02:10:50.046Z,2.03
2023-04-19T02:13:17.756Z,2.10
2023-04-19T02:15:44.873Z,1.65
2023-04-19T02:18:13.629Z,1.63
2023-04-19T02:20:41.109Z,2.13
2023-04-19T02:23:08.344Z,1.60
2023-04-19T02:25:35.453Z,2.10
2023-04-19T02:28:02.696Z,2.10
2023-04-19T02:30:29.796Z,2.05
2023-04-19T02:32:58.902Z,2.33
2023-04-19T02:35:26.075Z,1.83
2023-04-19T02:37:53.241Z,1.85
2023-04-19T02:40:22.935Z,1.80
2023-04-19T02:42:51.247Z,2.15
2023-04-19T02:45:18.482Z,3.58
2023-04-19T02:47:47.095Z,3.20
2023-04-19T02:50:16.504Z,3.30
2023-04-19T02:52:48.527Z,1.65
2023-04-19T02:55:15.851Z,1.55
2023-04-19T02:57:44.229Z,1.50
2023-04-19T03:00:12.601Z,1.65
2023-04-19T03:02:44.275Z,1.92
2023-04-19T03:05:11.858Z,1.45
2023-04-19T03:07:39.120Z,1.27
2023-04-19T03:10:07.261Z,1.15
2023-04-19T03:12:34.549Z,2.10
2023-04-19T03:15:01.771Z,1.70
2023-04-19T03:17:29.077Z,2.05
2023-04-19T03:19:56.882Z,2.25
2023-04-19T03:22:24.704Z,2.10
2023-04-19T03:24:53.233Z,1.25
2023-04-19T03:27:24.463Z,1.20
2023-04-19T03:29:57.616Z,1.02
2023-04-19T03:32:25.965Z,0.90
2023-04-19T03:34:53.309Z,1.20
2023-04-19T03:37:20.922Z,1.23
2023-04-19T03:39:49.025Z,1.65
2023-04-19T03:42:22.445Z,2.60
2023-04-19T03:44:55.868Z,2.42
2023-04-19T03:47:24.101Z,1.90
2023-04-19T03:49:54.711Z,1.98
2023-04-19T03:52:22.121Z,1.88
2023-04-19T03:54:49.283Z,2.47
2023-04-19T03:57:33.527Z,2.13
2023-04-19T04:00:08.957Z,2.45
2023-04-19T04:02:41.476Z,1.45
2023-04-19T04:05:09.785Z,1.80
2023-04-19T04:07:37.711Z,2.33
2023-04-19T04:10:06.189Z,2.47
2023-04-19T04:12:38.654Z,2.05
2023-04-19T04:15:08.533Z,1.65
2023-04-19T04:17:38.724Z,1.50
2023-04-19T04:20:08.500Z,2.03
2023-04-19T04:22:40.249Z,2.25
2023-04-19T04:25:07.859Z,1.83
2023-04-19T04:27:39.510Z,1.85
2023-04-19T04:30:12.361Z,2.20
2023-04-19T04:32:41.269Z,2.00
2023-04-19T04:35:10.925Z,2.20
2023-04-19T04:37:47.234Z,2.13
2023-04-19T04:40:14.633Z,2.08
2023-04-19T04:42:42.979Z,2.30
2023-04-19T04:45:11.057Z,2.20
2023-04-19T04:47:39.802Z,2.08
2023-04-19T04:50:08.094Z,1.80
2023-04-19T04:52:35.676Z,2.63
2023-04-19T04:55:12.441Z,2.83
2023-04-19T04:57:43.624Z,3.17
2023-04-19T05:00:17.772Z,2.28
2023-04-19T05:03:00.153Z,2.78
2023-04-19T05:05:28.873Z,2.90
2023-04-19T05:07:56.419Z,3.30
2023-04-19T05:10:23.765Z,2.33
2023-04-19T05:12:50.930Z,2.90
2023-04-19T05:15:18.538Z,2.60
2023-04-19T05:17:50.898Z,2.83
2023-04-19T05:20:19.509Z,3.95
2023-04-19T05:22:49.189Z,2.70
2023-04-19T05:25:16.689Z,2.20
2023-04-19T05:27:44.183Z,2.90
2023-04-19T05:30:12.188Z,3.53
2023-04-19T05:32:43.481Z,2.65
2023-04-19T05:35:13.268Z,2.58
2023-04-19T05:37:41.808Z,2.00
2023-04-19T05:40:12.284Z,3.13
2023-04-19T05:42:39.685Z,2.88
2023-04-19T05:45:08.454Z,3.38
2023-04-19T05:47:35.735Z,2.70
2023-04-19T05:50:21.405Z,3.45
2023-04-19T05:53:05.151Z,2.63
2023-04-19T05:55:32.461Z,2.75
2023-04-19T05:57:59.660Z,2.60
2023-04-19T06:00:28.798Z,3.80
2023-04-19T06:03:03.527Z,3.25
2023-04-19T06:05:30.991Z,3.28
2023-04-19T06:08:02.493Z,2.78
2023-04-19T06:10:40.432Z,2.35
2023-04-19T06:13:16.497Z,2.47
2023-04-19T06:15:43.912Z,2.65
2023-04-19T06:18:19.479Z,2.85
2023-04-19T06:20:47.732Z,2.83
2023-04-19T06:23:15.195Z,2.53
2023-04-19T06:25:42.835Z,4.18
2023-04-19T06:28:11.122Z,4.72
2023-04-19T06:30:38.725Z,5.38
2023-04-19T06:33:06.031Z,5.68
2023-04-19T06:35:33.589Z,3.95
2023-04-19T06:38:00.834Z,3.40
2023-04-19T06:40:31.936Z,4.40
2023-04-19T06:42:59.156Z,4.50
2023-04-19T06:45:26.907Z,3.10
2023-04-19T06:47:54.189Z,4.45
2023-04-19T06:50:21.726Z,4.18
2023-04-19T06:52:48.921Z,4.55
2023-04-19T06:55:16.065Z,2.97
2023-04-19T06:57:43.548Z,6.05
2023-04-19T07:00:11.661Z,4.28
2023-04-19T07:02:38.884Z,3.00
2023-04-19T07:05:06.656Z,3.35
2023-04-19T07:07:34.111Z,2.85
2023-04-19T07:10:01.237Z,4.22
2023-04-19T07:12:28.519Z,2.42
2023-04-19T07:14:57.432Z,4.20
2023-04-19T07:17:24.749Z,2.80
2023-04-19T07:19:52.183Z,2.47
2023-04-19T07:22:19.461Z,3.03
2023-04-19T07:24:46.919Z,3.47
2023-04-19T07:27:14.949Z,3.78
2023-04-19T07:29:42.284Z,3.70
2023-04-19T07:32:09.649Z,3.30
2023-04-19T07:34:38.528Z,4.00
2023-04-19T07:37:05.810Z,5.25
2023-04-19T07:39:33.484Z,3.45
2023-04-19T07:42:01.829Z,3.15
2023-04-19T07:44:28.970Z,1.95
2023-04-19T07:46:56.223Z,4.10
2023-04-19T07:49:23.679Z,4.05
2023-04-19T07:51:51.033Z,3.67
2023-04-19T07:54:20.408Z,3.45
2023-04-19T07:56:47.721Z,3.30
2023-04-19T07:59:15.183Z,3.97
2023-04-19T08:01:43.302Z,3.88
2023-04-19T08:04:10.761Z,2.88
2023-04-19T08:06:40.054Z,4.25
2023-04-19T08:09:07.234Z,3.88
2023-04-19T08:11:34.718Z,3.33
2023-04-19T08:14:11.889Z,2.10
2023-04-19T08:19:19.255Z,3.03
2023-04-19T08:21:46.440Z,2.90
2023-04-19T08:24:13.567Z,2.38
2023-04-19T08:26:41.270Z,2.67
2023-04-19T08:29:08.596Z,2.63
2023-04-19T08:31:35.889Z,2.22
2023-04-19T08:34:03.025Z,2.63
2023-04-19T08:36:39.091Z,2.70
2023-04-19T08:39:20.830Z,1.95
2023-04-19T08:42:06.620Z,2.25
2023-04-19T08:44:50.975Z,3.35
2023-04-19T08:47:31.175Z,2.35
2023-04-19T08:52:47.813Z,2.25
2023-04-19T08:55:16.532Z,2.33
2023-04-19T08:57:43.663Z,2.28
2023-04-19T09:00:14.220Z,2.40
2023-04-19T09:02:49.520Z,2.17
2023-04-19T09:05:18.414Z,2.03
2023-04-19T09:07:46.678Z,2.20
2023-04-19T09:10:19.245Z,1.60
2023-04-19T09:13:06.263Z,1.40
2023-04-19T09:15:39.016Z,2.30
2023-04-19T09:18:10.350Z,1.92
2023-04-19T09:20:42.664Z,1.85
2023-04-19T09:23:15.101Z,1.58
2023-04-19T09:28:27.339Z,2.38
2023-04-19T09:31:05.799Z,1.83
2023-04-19T09:33:44.730Z,1.55
2023-04-19T09:36:14.575Z,1.70
2023-04-19T09:38:49.213Z,2.05
2023-04-19T09:41:20.285Z,1.50
2023-04-19T09:46:36.310Z,2.45
2023-04-19T09:49:37.469Z,1.90
2023-04-19T09:52:14.543Z,1.60
2023-04-19T09:54:42.244Z,2.00
2023-04-19T09:57:09.619Z,1.65
2023-04-19T09:59:36.725Z,2.05
2023-04-19T10:02:06.790Z,2.22
2023-04-19T10:04:54.644Z,2.10
2023-04-19T10:07:30.625Z,1.85
2023-04-19T10:10:15.808Z,1.98
2023-04-19T10:13:11.483Z,2.03
2023-04-19T10:15:50.245Z,2.22
2023-04-19T10:18:18.746Z,1.85
2023-04-19T10:21:22.505Z,1.85
2023-04-19T10:23:51.486Z,2.50
2023-04-19T10:26:19.440Z,1.55
2023-04-19T10:28:49.157Z,2.10
2023-04-19T10:31:21.408Z,1.80
2023-04-19T10:33:49.648Z,2.67
2023-04-19T10:36:17.856Z,1.80
2023-04-19T10:39:08.742Z,1.63
2023-04-19T10:42:02.246Z,1.35
2023-04-19T10:44:29.955Z,1.45
2023-04-19T10:46:59.515Z,2.00
2023-04-19T10:49:28.844Z,1.58
2023-04-19T10:51:57.364Z,1.80
2023-04-19T10:54:27.535Z,2.63
2023-04-19T10:57:04.804Z,2.30
2023-04-19T10:59:34.120Z,2.08
2023-04-19T11:02:04.416Z,1.60
2023-04-19T11:04:32.012Z,2.00
2023-04-19T11:07:05.345Z,1.48
2023-04-19T11:09:36.334Z,1.77
2023-04-19T11:12:05.250Z,2.00
2023-04-19T11:14:35.852Z,1.67
2023-04-19T11:17:13.946Z,1.65
2023-04-19T11:19:43.996Z,1.92
2023-04-19T11:22:15.218Z,2.00
2023-04-19T11:24:47.510Z,1.80
2023-04-19T11:27:14.888Z,1.85
2023-04-19T11:29:42.052Z,2.40
2023-04-19T11:32:09.384Z,1.67
2023-04-19T11:34:38.540Z,1.45
2023-04-19T11:37:05.889Z,2.22
2023-04-19T11:39:33.121Z,1.90
2023-04-19T11:42:00.965Z,2.05
2023-04-19T11:44:28.257Z,1.98
2023-04-19T11:46:59.920Z,2.00
2023-04-19T11:49:29.391Z,1.75
2023-04-19T11:52:02.454Z,1.50
2023-04-19T11:54:31.386Z,1.73
2023-04-19T11:57:04.404Z,1.73
2023-04-19T11:59:33.547Z,1.58
2023-04-19T12:02:11.750Z,1.60
2023-04-19T12:04:40.355Z,1.50
2023-04-19T12:07:08.911Z,1.88
2023-04-19T12:09:37.254Z,1.85
2023-04-19T12:12:04.893Z,1.95
2023-04-19T12:14:32.424Z,1.33
2023-04-19T12:17:11.514Z,1.95
2023-04-19T12:19:44.052Z,1.42
2023-04-19T12:22:16.182Z,1.77
2023-04-19T12:24:43.789Z,1.60
2023-04-19T12:27:11.705Z,2.05
2023-04-19T12:29:39.425Z,1.50
2023-04-19T12:32:07.375Z,1.23
2023-04-19T12:34:34.717Z,1.60
2023-04-19T12:37:03.822Z,1.52
2023-04-19T12:39:31.353Z,1.27
2023-04-19T12:41:58.656Z,1.50
2023-04-19T12:44:26.176Z,1.77
2023-04-19T12:46:57.567Z,1.67
2023-04-19T12:49:25.071Z,1.77
2023-04-19T12:51:53.113Z,2.40
2023-04-19T12:54:20.915Z,1.60
2023-04-19T12:56:48.039Z,1.90
2023-04-19T12:59:15.629Z,2.17
2023-04-19T13:01:43.341Z,1.55
2023-04-19T13:04:12.310Z,1.70
2023-04-19T13:06:40.406Z,1.52
2023-04-19T13:09:14.255Z,2.60
2023-04-19T13:11:42.567Z,1.33
2023-04-19T13:14:09.734Z,1.55
2023-04-19T13:16:37.113Z,1.58
2023-04-19T13:19:04.254Z,1.75
2023-04-19T13:21:31.484Z,1.88
2023-04-19T13:23:59.269Z,1.85
2023-04-19T13:26:26.811Z,1.77
2023-04-19T13:28:54.244Z,1.50
2023-04-19T13:31:21.496Z,1.50
2023-04-19T13:33:48.640Z,1.58
2023-04-19T13:36:15.874Z,1.55
2023-04-19T13:38:42.997Z,2.25
2023-04-19T13:41:10.201Z,1.80
2023-04-19T13:43:37.666Z,2.15
2023-04-19T13:46:05.774Z,1.50
2023-04-19T13:48:33.439Z,1.65
2023-04-19T13:51:00.715Z,1.80
2023-04-19T13:53:29.422Z,1.75
2023-04-19T13:55:57.279Z,1.55
2023-04-19T13:58:27.385Z,1.58
2023-04-19T14:00:54.924Z,1.77
2023-04-19T14:03:23.509Z,1.90
2023-04-19T14:05:51.096Z,1.77
2023-04-19T14:08:18.252Z,1.80
2023-04-19T14:10:45.630Z,1.60
2023-04-19T14:13:12.901Z,1.85
2023-04-19T14:15:40.478Z,1.70
2023-04-19T14:18:07.810Z,1.80
2023-04-19T14:20:35.139Z,1.80
2023-04-19T14:23:02.573Z,1.58
2023-04-19T14:25:29.914Z,1.60
2023-04-19T14:27:57.812Z,1.85
2023-04-19T14:30:26.402Z,1.70
2023-04-19T14:32:53.756Z,1.42
2023-04-19T14:35:21.407Z,1.42
2023-04-19T14:37:48.720Z,1.45
2023-04-19T14:40:17.913Z,1.40
2023-04-19T14:42:45.115Z,1.73
2023-04-19T14:45:12.489Z,1.20
2023-04-19T14:47:39.960Z,1.17
2023-04-19T14:50:07.789Z,1.30
2023-04-19T14:52:35.077Z,1.13
2023-04-19T14:55:02.672Z,1.30
2023-04-19T14:57:30.170Z,1.95
2023-04-19T14:59:58.424Z,1.30
2023-04-19T15:02:26.222Z,1.55
2023-04-19T15:04:54.420Z,1.90
2023-04-19T15:07:21.939Z,1.10
2023-04-19T15:09:49.348Z,1.13
2023-04-19T15:12:16.650Z,1.63
2023-04-19T15:14:43.823Z,1.40
2023-04-19T15:17:11.305Z,1.40
2023-04-19T15:19:39.260Z,1.33
2023-04-19T15:22:06.600Z,1.23
2023-04-19T15:24:36.934Z,1.88
2023-04-19T15:27:04.494Z,1.20
2023-04-19T15:29:31.912Z,1.08
2023-04-19T15:31:59.245Z,1.70
2023-04-19T15:34:26.701Z,1.38
2023-04-19T15:36:54.058Z,1.52
2023-04-19T15:39:24.013Z,1.30
2023-04-19T15:41:53.888Z,1.38
2023-04-19T15:44:21.217Z,1.30
2023-04-19T15:46:49.468Z,2.13
2023-04-19T15:49:18.309Z,1.40
2023-04-19T15:51:49.072Z,1.60
2023-04-19T15:54:17.883Z,1.30
2023-04-19T15:56:47.151Z,1.13
2023-04-19T15:59:15.939Z,1.83
2023-04-19T16:01:43.817Z,1.92
2023-04-19T16:04:11.101Z,1.65
2023-04-19T16:06:38.601Z,1.60
2023-04-19T16:09:08.354Z,2.00
2023-04-19T16:11:36.276Z,1.42
2023-04-19T16:14:04.884Z,1.80
2023-04-19T16:16:35.328Z,1.35
2023-04-19T16:19:02.834Z,1.60
2023-04-19T16:27:04.680Z,1.30
2023-04-19T16:29:33.051Z,1.73
2023-04-19T16:32:00.719Z,1.55
2023-04-19T16:34:28.780Z,1.35
2023-04-19T16:36:56.293Z,1.45
2023-04-19T16:39:23.836Z,1.55
2023-04-19T16:41:51.423Z,1.50
2023-04-19T16:44:18.545Z,2.03
2023-04-19T16:46:45.804Z,1.38
2023-04-19T16:49:13.368Z,2.28
2023-04-19T16:51:40.625Z,1.90
2023-04-19T16:54:07.758Z,1.35
2023-04-19T16:56:35.031Z,1.30
2023-04-19T16:59:02.261Z,1.67
2023-04-19T17:01:29.465Z,1.65
2023-04-19T17:03:57.027Z,1.48
2023-04-19T17:06:24.629Z,2.15
2023-04-19T17:08:58.606Z,1.50
2023-04-19T17:11:26.225Z,2.20
2023-04-19T17:13:55.323Z,1.60
2023-04-19T17:16:24.217Z,1.83
2023-04-19T17:18:54.439Z,1.33
2023-04-19T17:21:22.118Z,1.48
2023-04-19T17:26:34.170Z,1.73
2023-04-19T17:29:02.151Z,1.88
2023-04-19T17:31:29.484Z,1.40
2023-04-19T17:33:56.853Z,1.40
2023-04-19T17:36:25.041Z,1.80
2023-04-19T17:38:52.428Z,1.50
2023-04-19T17:41:19.637Z,1.50
2023-04-19T17:43:50.341Z,1.80
2023-04-19T17:46:23.410Z,1.80
2023-04-19T17:49:23.785Z,1.40
2023-04-19T17:52:15.246Z,1.25
2023-04-19T17:54:53.455Z,1.58
2023-04-19T17:57:25.803Z,1.17
2023-04-19T18:00:22.002Z,2.53
2023-04-19T18:03:05.435Z,1.38
2023-04-19T18:05:51.340Z,2.20
2023-04-19T18:08:31.162Z,1.65
2023-04-19T18:11:22.346Z,1.63
2023-04-19T18:13:59.430Z,1.77
2023-04-19T18:16:44.601Z,1.67
2023-04-19T18:19:20.905Z,2.03
2023-04-19T18:22:00.880Z,1.60
2023-04-19T18:24:49.507Z,1.63
2023-04-19T18:27:22.796Z,1.52
2023-04-19T18:29:59.158Z,1.40
2023-04-19T18:35:33.712Z,1.33
2023-04-19T18:38:16.791Z,1.70
2023-04-19T18:40:53.068Z,1.38
2023-04-19T18:44:00.639Z,2.17
2023-04-19T18:46:36.469Z,1.58
2023-04-19T18:49:08.994Z,1.33
2023-04-19T18:51:41.574Z,1.75
2023-04-19T18:54:21.206Z,1.58
2023-04-19T18:57:23.173Z,1.30
2023-04-19T18:59:57.525Z,1.88
2023-04-19T19:02:31.896Z,1.30
2023-04-19T19:07:40.848Z,1.67
2023-04-19T19:13:20.977Z,2.05
2023-04-19T19:15:52.249Z,1.92
2023-04-19T19:18:31.952Z,2.28
2023-04-19T19:21:07.722Z,1.77
2023-04-19T19:23:54.931Z,2.17
2023-04-19T19:26:27.414Z,2.60
2023-04-19T19:28:56.013Z,1.85
2023-04-19T19:31:30.037Z,1.40
2023-04-19T19:39:18.072Z,1.40
2023-04-19T20:00:36.801Z,2.03
2023-04-19T20:03:03.932Z,1.60
2023-04-19T20:05:32.403Z,1.75
2023-04-19T20:08:09.685Z,2.80
2023-04-19T20:10:39.285Z,2.53
2023-04-19T20:13:07.217Z,3.03
2023-04-19T20:15:36.965Z,2.50
2023-04-19T20:18:05.641Z,2.75
2023-04-19T20:20:37.221Z,2.30
2023-04-19T20:23:05.317Z,2.25
2023-04-19T20:25:35.369Z,2.28
2023-04-19T20:28:03.692Z,3.03
2023-04-19T20:30:31.633Z,3.90
2023-04-19T20:32:59.327Z,3.38
2023-04-19T20:35:27.434Z,2.72
2023-04-19T20:37:55.400Z,2.85
2023-04-19T20:40:23.408Z,3.70
2023-04-19T20:42:53.649Z,3.40
2023-04-19T20:45:28.046Z,3.75
2023-04-19T20:47:56.097Z,2.85
2023-04-19T20:50:23.728Z,2.13
2023-04-19T20:52:51.719Z,4.35
2023-04-19T20:55:21.962Z,2.83
2023-04-19T20:57:49.509Z,2.40
2023-04-19T21:00:19.469Z,3.03
2023-04-19T21:02:47.087Z,3.30
2023-04-19T21:05:14.742Z,3.92
2023-04-19T21:07:42.491Z,4.85
2023-04-19T21:10:11.642Z,4.07
2023-04-19T21:12:39.188Z,3.00
2023-04-19T21:15:07.386Z,4.50
2023-04-19T21:17:35.343Z,3.38
2023-04-19T21:20:02.839Z,3.65
2023-04-19T21:22:32.200Z,4.00
2023-04-19T21:24:59.738Z,3.10
2023-04-19T21:27:29.610Z,3.88
2023-04-19T21:29:57.399Z,3.45
2023-04-19T21:32:26.832Z,4.28
2023-04-19T21:34:55.120Z,2.67
2023-04-19T21:37:26.536Z,4.53
2023-04-19T21:39:54.720Z,3.80
2023-04-19T21:42:22.439Z,5.68
2023-04-19T21:44:49.947Z,4.18
2023-04-19T21:47:18.694Z,5.63
2023-04-19T21:49:47.252Z,6.05
2023-04-19T21:55:33.954Z,4.53
2023-04-19T21:58:04.834Z,4.68
2023-04-19T22:00:35.768Z,5.15
2023-04-19T22:03:06.400Z,5.35
2023-04-19T22:05:43.564Z,4.20
2023-04-19T22:08:12.278Z,4.18
2023-04-19T22:10:41.190Z,3.28
2023-04-19T22:13:08.883Z,4.30
2023-04-19T22:15:39.088Z,5.15
2023-04-19T22:18:09.571Z,3.50
2023-04-19T22:20:38.495Z,4.85
2023-04-19T22:23:08.987Z,4.93
2023-04-19T22:25:36.262Z,5.28
2023-04-19T22:28:04.559Z,4.93
2023-04-19T22:30:39.205Z,4.68
2023-04-19T22:33:07.844Z,4.60
2023-04-19T22:35:36.578Z,3.22
2023-04-19T22:38:04.239Z,4.00
2023-04-19T22:40:34.169Z,4.63
2023-04-19T22:43:02.070Z,4.53
2023-04-19T22:45:30.953Z,3.83
2023-04-19T22:48:01.890Z,3.10
2023-04-19T22:50:30.067Z,3.88
2023-04-19T22:52:57.159Z,4.07
2023-04-19T22:55:34.170Z,3.40
2023-04-19T23:01:22.331Z,5.05
2023-04-19T23:03:50.342Z,4.18
2023-04-19T23:06:20.781Z,4.75
2023-04-19T23:08:48.101Z,4.15
2023-04-19T23:11:15.289Z,3.42
2023-04-19T23:13:42.621Z,4.38
2023-04-19T23:16:13.884Z,5.45
2023-04-19T23:18:41.751Z,4.75
2023-04-19T23:21:09.658Z,4.10
2023-04-19T23:23:38.846Z,4.82
2023-04-19T23:26:11.754Z,4.55
2023-04-19T23:28:44.121Z,4.18
2023-04-19T23:31:12.704Z,4.68
2023-04-19T23:39:01.615Z,4.30
2023-04-19T23:41:38.152Z,3.95
2023-04-19T23:44:22.547Z,5.55
2023-04-19T23:47:05.923Z,6.28
2023-04-19T23:49:47.257Z,5.60
2023-04-19T23:52:23.393Z,5.85
2023-04-19T23:54:58.332Z,5.55
2023-04-19T23:57:26.891Z,6.00
